Time,TemperatureF,DewpointF,PressureIn,WindDirection,WindDirectionDegrees,WindSpeedMPH,WindSpeedGustMPH,Humidity,HourlyPrecipIn,Conditions,Clouds,dailyrainin,SoftwareType,DateUTC
2013-03-03 00:02:00,12.0,11.0,30.24,WNW,290,0.0,0.0,94,-99.99,,,-99.99,,2013-03-03 06:02:00,
2013-03-03 00:11:00,12.0,11.0,30.24,WNW,290,0.0,0.0,94,-99.99,,,-99.99,,2013-03-03 06:11:00,
2013-03-03 00:21:00,12.0,11.0,30.23,WNW,290,0.0,0.0,94,-99.99,,,-99.99,,2013-03-03 06:21:00,
2013-03-03 00:32:00,12.0,11.0,30.23,WNW,290,0.0,0.0,94,-99.99,,,-99.99,,2013-03-03 06:32:00,
2013-03-03 00:42:00,12.0,11.0,30.23,WNW,290,0.0,0.0,94,-99.99,,,-99.99,,2013-03-03 06:42:00,
2013-03-03 00:52:00,12.0,11.0,30.23,WNW,290,0.0,0.0,94,-99.99,,,-99.99,,2013-03-03 06:52:00,
2013-03-03 01:01:00,12.0,11.0,30.23,WNW,290,0.0,0.0,94,-99.99,,,-99.99,,2013-03-03 07:01:00,
2013-03-03 02:01:00,10.0,9.0,30.22,WNW,290,0.0,0.0,94,-99.99,,,-99.99,,2013-03-03 08:01:00,
2013-03-03 02:11:00,10.0,9.0,30.22,WNW,290,0.0,0.0,94,-99.99,,,-99.99,,2013-03-03 08:11:00,
2013-03-03 02:21:00,10.0,9.0,30.22,WNW,290,0.0,0.0,95,-99.99,,,-99.99,,2013-03-03 08:21:00,
2013-03-03 02:31:00,9.0,8.0,30.21,WNW,290,0.0,0.0,95,-99.99,,,-99.99,,2013-03-03 08:31:00,
2013-03-03 02:41:00,9.0,8.0,30.21,WNW,290,0.0,0.0,95,-99.99,,,-99.99,,2013-03-03 08:41:00,
2013-03-03 02:53:00,9.0,8.0,30.21,WNW,290,0.0,0.0,95,-99.99,,,-99.99,,2013-03-03 08:53:00,
2013-03-03 03:01:00,8.0,7.0,30.20,WNW,290,0.0,0.0,95,-99.99,,,-99.99,,2013-03-03 09:01:00,
2013-03-03 03:11:00,8.0,7.0,30.20,WNW,290,0.0,0.0,95,-99.99,,,-99.99,,2013-03-03 09:11:00,
2013-03-03 03:21:00,8.0,7.0,30.20,WNW,290,0.0,0.0,95,-99.99,,,-99.99,,2013-03-03 09:21:00,
2013-03-03 03:32:00,8.0,7.0,30.19,WNW,290,0.0,0.0,95,-99.99,,,-99.99,,2013-03-03 09:32:00,
2013-03-03 03:41:00,8.0,7.0,30.19,WNW,290,0.0,0.0,95,-99.99,,,-99.99,,2013-03-03 09:41:00,
2013-03-03 03:51:00,8.0,7.0,30.19,WNW,290,0.0,0.0,95,-99.99,,,-99.99,,2013-03-03 09:51:00,
2013-03-03 04:01:00,8.0,7.0,30.19,WNW,290,0.0,0.0,95,-99.99,,,-99.99,,2013-03-03 10:01:00,
2013-03-03 04:11:00,8.0,7.0,30.19,WNW,290,0.0,0.0,95,-99.99,,,-99.99,,2013-03-03 10:11:00,
2013-03-03 04:21:00,7.0,6.0,30.19,WNW,290,0.0,0.0,95,-99.99,,,-99.99,,2013-03-03 10:21:00,
2013-03-03 04:32:00,7.0,6.0,30.19,WNW,290,0.0,0.0,95,-99.99,,,-99.99,,2013-03-03 10:32:00,
2013-03-03 04:42:00,7.0,6.0,30.19,WNW,290,0.0,0.0,95,-99.99,,,-99.99,,2013-03-03 10:42:00,
2013-03-03 04:52:00,7.0,6.0,30.19,WNW,290,0.0,0.0,95,-99.99,,,-99.99,,2013-03-03 10:52:00,
2013-03-03 05:01:00,6.0,5.0,30.19,WNW,290,0.0,0.0,95,-99.99,,,-99.99,,2013-03-03 11:01:00,
2013-03-03 05:11:00,6.0,5.0,30.19,WNW,290,0.0,0.0,95,-99.99,,,-99.99,,2013-03-03 11:11:00,
2013-03-03 05:21:00,6.0,5.0,30.19,WNW,290,0.0,0.0,95,-99.99,,,-99.99,,2013-03-03 11:21:00,
2013-03-03 05:32:00,6.0,5.0,30.19,WNW,290,0.0,0.0,95,-99.99,,,-99.99,,2013-03-03 11:32:00,
2013-03-03 05:53:00,8.0,7.0,30.19,WNW,290,0.0,0.0,95,-99.99,,,-99.99,,2013-03-03 11:53:00,
2013-03-03 06:01:00,7.0,6.0,30.19,WNW,290,0.0,0.0,95,-99.99,,,-99.99,,2013-03-03 12:01:00,
2013-03-03 06:11:00,7.0,6.0,30.19,WNW,290,0.0,0.0,95,-99.99,,,-99.99,,2013-03-03 12:11:00,
2013-03-03 06:21:00,7.0,6.0,30.19,WNW,290,0.0,0.0,95,-99.99,,,-99.99,,2013-03-03 12:21:00,
2013-03-03 06:32:00,7.0,6.0,30.18,WNW,290,0.0,0.0,95,-99.99,,,-99.99,,2013-03-03 12:32:00,
2013-03-03 06:43:00,7.0,6.0,30.18,WNW,290,0.0,0.0,95,-99.99,,,-99.99,,2013-03-03 12:43:00,
2013-03-03 06:53:00,7.0,6.0,30.18,WNW,290,0.0,0.0,95,-99.99,,,-99.99,,2013-03-03 12:53:00,
2013-03-03 07:01:00,8.0,7.0,30.18,WNW,290,0.0,0.0,95,-99.99,,,-99.99,,2013-03-03 13:01:00,
2013-03-03 07:11:00,8.0,7.0,30.18,WNW,290,0.0,0.0,95,-99.99,,,-99.99,,2013-03-03 13:11:00,
2013-03-03 07:22:00,8.0,7.0,30.18,WNW,290,0.0,0.0,95,-99.99,,,-99.99,,2013-03-03 13:22:00,
2013-03-03 07:32:00,8.0,7.0,30.18,WNW,290,0.0,0.0,95,-99.99,,,-99.99,,2013-03-03 13:32:00,
2013-03-03 07:42:00,8.0,7.0,30.18,WNW,290,0.0,0.0,95,-99.99,,,-99.99,,2013-03-03 13:42:00,
2013-03-03 07:51:00,9.0,8.0,30.19,WNW,290,0.0,0.0,95,-99.99,,,-99.99,,2013-03-03 13:51:00,
2013-03-03 08:02:00,15.0,14.0,30.19,WNW,290,0.0,0.0,94,-99.99,,,-99.99,,2013-03-03 14:02:00,
2013-03-03 08:11:00,15.0,14.0,30.19,WNW,290,0.0,0.0,94,-99.99,,,-99.99,,2013-03-03 14:11:00,
2013-03-03 08:21:00,15.0,14.0,30.19,WNW,290,0.0,0.0,94,-99.99,,,-99.99,,2013-03-03 14:21:00,
2013-03-03 08:32:00,15.0,14.0,30.19,WNW,290,0.0,0.0,94,-99.99,,,-99.99,,2013-03-03 14:32:00,
2013-03-03 08:42:00,15.0,14.0,30.19,WNW,290,0.0,0.0,94,-99.99,,,-99.99,,2013-03-03 14:42:00,
2013-03-03 08:52:00,27.0,23.0,30.19,South,183,0.0,0.0,83,-99.99,,,-99.99,,2013-03-03 14:52:00,
2013-03-03 09:01:00,24.0,18.0,30.19,South,183,0.0,0.0,77,-99.99,,,-99.99,,2013-03-03 15:01:00,
2013-03-03 09:11:00,24.0,18.0,30.19,South,183,0.0,0.0,77,-99.99,,,-99.99,,2013-03-03 15:11:00,
2013-03-03 09:22:00,24.0,18.0,30.19,South,183,0.0,0.0,77,-99.99,,,-99.99,,2013-03-03 15:22:00,
2013-03-03 09:32:00,26.0,20.0,30.19,South,183,0.0,0.0,77,-99.99,,,-99.99,,2013-03-03 15:32:00,
2013-03-03 09:42:00,26.0,20.0,30.19,South,183,0.0,0.0,77,-99.99,,,-99.99,,2013-03-03 15:42:00,
2013-03-03 09:52:00,26.0,20.0,30.19,South,183,0.0,0.0,77,-99.99,,,-99.99,,2013-03-03 15:52:00,
2013-03-03 10:01:00,29.0,20.0,30.18,SE,128,0.0,0.0,70,-99.99,,,-99.99,,2013-03-03 16:01:00,
2013-03-03 10:12:00,29.0,20.0,30.18,SE,128,0.0,0.0,70,-99.99,,,-99.99,,2013-03-03 16:12:00,
2013-03-03 10:22:00,31.0,22.0,30.17,SE,128,0.0,0.0,68,-99.99,,,-99.99,,2013-03-03 16:22:00,
2013-03-03 10:32:00,31.0,22.0,30.17,SE,128,0.0,0.0,68,-99.99,,,-99.99,,2013-03-03 16:32:00,
2013-03-03 10:42:00,31.0,22.0,30.17,SE,128,0.0,0.0,68,-99.99,,,-99.99,,2013-03-03 16:42:00,
2013-03-03 10:52:00,35.0,22.0,30.16,South,183,0.0,7.0,58,-99.99,,,-99.99,,2013-03-03 16:52:00,
2013-03-03 11:01:00,35.0,21.0,30.16,South,180,0.0,7.0,57,-99.99,,,-99.99,,2013-03-03 17:01:00,
2013-03-03 11:11:00,38.0,23.0,30.16,SSE,162,0.0,7.0,55,-99.99,,,-99.99,,2013-03-03 17:11:00,
2013-03-03 11:22:00,38.0,23.0,30.16,SSE,162,0.0,7.0,55,-99.99,,,-99.99,,2013-03-03 17:22:00,
2013-03-03 11:32:00,38.0,23.0,30.16,SSE,162,0.0,7.0,55,-99.99,,,-99.99,,2013-03-03 17:32:00,
2013-03-03 11:42:00,38.0,23.0,30.16,SSE,162,0.0,7.0,55,-99.99,,,-99.99,,2013-03-03 17:42:00,
2013-03-03 11:52:00,39.0,23.0,30.16,SSW,203,0.0,7.0,52,-99.99,,,-99.99,,2013-03-03 17:52:00,
2013-03-03 12:02:00,39.0,23.0,30.16,SSW,203,0.0,7.0,52,-99.99,,,-99.99,,2013-03-03 18:02:00,
2013-03-03 12:11:00,39.0,23.0,30.16,SSW,203,0.0,7.0,52,-99.99,,,-99.99,,2013-03-03 18:11:00,
2013-03-03 12:21:00,39.0,23.0,30.16,SSW,203,0.0,7.0,52,-99.99,,,-99.99,,2013-03-03 18:21:00,
2013-03-03 12:52:00,42.0,22.0,30.14,SE,136,0.0,8.0,45,-99.99,,,-99.99,,2013-03-03 18:52:00,
2013-03-03 13:02:00,42.0,22.0,30.14,SE,136,0.0,8.0,45,-99.99,,,-99.99,,2013-03-03 19:02:00,
2013-03-03 13:11:00,42.0,22.0,30.14,SE,136,0.0,8.0,45,-99.99,,,-99.99,,2013-03-03 19:11:00,
2013-03-03 13:21:00,38.0,20.0,30.13,SE,138,0.0,9.0,48,-99.99,,,-99.99,,2013-03-03 19:21:00,
2013-03-03 13:32:00,38.0,20.0,30.13,SE,138,0.0,9.0,48,-99.99,,,-99.99,,2013-03-03 19:32:00,
2013-03-03 13:42:00,38.0,20.0,30.13,SE,138,0.0,9.0,48,-99.99,,,-99.99,,2013-03-03 19:42:00,
2013-03-03 13:51:00,36.0,20.0,30.12,SSE,160,0.0,8.0,52,-99.99,,,-99.99,,2013-03-03 19:51:00,
2013-03-03 14:01:00,36.0,20.0,30.12,SSE,160,0.0,8.0,52,-99.99,,,-99.99,,2013-03-03 20:01:00,
2013-03-03 14:11:00,36.0,20.0,30.12,SSE,160,0.0,8.0,52,-99.99,,,-99.99,,2013-03-03 20:11:00,
2013-03-03 14:21:00,34.0,19.0,30.11,SE,131,0.0,10.0,54,-99.99,,,-99.99,,2013-03-03 20:21:00,
2013-03-03 14:32:00,34.0,20.0,30.10,South,184,0.0,9.0,56,-99.99,,,-99.99,,2013-03-03 20:32:00,
2013-03-03 14:42:00,34.0,20.0,30.10,South,184,0.0,9.0,56,-99.99,,,-99.99,,2013-03-03 20:42:00,
2013-03-03 14:52:00,33.0,19.0,30.10,SE,138,0.0,9.0,57,-99.99,,,-99.99,,2013-03-03 20:52:00,
2013-03-03 15:02:00,33.0,19.0,30.10,SE,138,0.0,9.0,57,-99.99,,,-99.99,,2013-03-03 21:02:00,
2013-03-03 15:11:00,33.0,19.0,30.10,SE,138,0.0,9.0,57,-99.99,,,-99.99,,2013-03-03 21:11:00,
2013-03-03 15:22:00,33.0,19.0,30.09,SSE,152,0.0,9.0,57,-99.99,,,-99.99,,2013-03-03 21:22:00,
2013-03-03 15:32:00,34.0,21.0,30.09,South,169,0.0,7.0,58,-99.99,,,-99.99,,2013-03-03 21:32:00,
2013-03-03 15:42:00,34.0,21.0,30.09,South,169,0.0,7.0,58,-99.99,,,-99.99,,2013-03-03 21:42:00,
2013-03-03 15:52:00,33.0,20.0,30.09,SE,134,0.0,10.0,59,-99.99,,,-99.99,,2013-03-03 21:52:00,
2013-03-03 16:01:00,33.0,20.0,30.09,ESE,118,0.0,4.0,59,-99.99,,,-99.99,,2013-03-03 22:01:00,
2013-03-03 16:11:00,33.0,20.0,30.09,ESE,118,0.0,4.0,59,-99.99,,,-99.99,,2013-03-03 22:11:00,
2013-03-03 16:22:00,33.0,21.0,30.09,East,79,0.0,9.0,60,-99.99,,,-99.99,,2013-03-03 22:22:00,
2013-03-03 16:32:00,32.0,20.0,30.08,SSE,159,0.0,9.0,61,-99.99,,,-99.99,,2013-03-03 22:32:00,
2013-03-03 16:42:00,32.0,20.0,30.08,SSE,159,0.0,9.0,61,-99.99,,,-99.99,,2013-03-03 22:42:00,
2013-03-03 16:52:00,32.0,20.0,30.08,SSE,159,0.0,9.0,61,-99.99,,,-99.99,,2013-03-03 22:52:00,
2013-03-03 17:01:00,30.0,18.0,30.08,SE,134,0.0,7.0,61,-99.99,,,-99.99,,2013-03-03 23:01:00,
2013-03-03 17:11:00,30.0,18.0,30.08,SE,134,0.0,7.0,61,-99.99,,,-99.99,,2013-03-03 23:11:00,
2013-03-03 17:21:00,30.0,18.0,30.08,SE,134,0.0,7.0,61,-99.99,,,-99.99,,2013-03-03 23:21:00,
2013-03-03 17:32:00,29.0,19.0,30.09,East,79,0.0,9.0,65,-99.99,,,-99.99,,2013-03-03 23:32:00,
2013-03-03 17:42:00,29.0,19.0,30.09,East,79,0.0,9.0,65,-99.99,,,-99.99,,2013-03-03 23:42:00,
2013-03-03 17:52:00,28.0,19.0,30.08,SE,145,0.0,9.0,68,-99.99,,,-99.99,,2013-03-03 23:52:00,
2013-03-03 18:01:00,28.0,19.0,30.08,SE,145,0.0,9.0,68,-99.99,,,-99.99,,2013-03-04 00:01:00,
2013-03-03 18:11:00,28.0,19.0,30.08,SE,145,0.0,9.0,68,-99.99,,,-99.99,,2013-03-04 00:11:00,
2013-03-03 18:21:00,28.0,19.0,30.08,SE,145,0.0,9.0,68,-99.99,,,-99.99,,2013-03-04 00:21:00,
2013-03-03 18:32:00,26.0,19.0,30.08,ESE,122,0.0,7.0,76,-99.99,,,-99.99,,2013-03-04 00:32:00,
2013-03-03 18:42:00,26.0,19.0,30.08,ESE,122,0.0,7.0,76,-99.99,,,-99.99,,2013-03-04 00:42:00,
2013-03-03 18:52:00,26.0,19.0,30.09,SE,135,0.0,9.0,76,-99.99,,,-99.99,,2013-03-04 00:52:00,
2013-03-03 19:01:00,25.0,19.0,30.09,SE,124,0.0,5.0,78,-99.99,,,-99.99,,2013-03-04 01:01:00,
2013-03-03 19:11:00,25.0,19.0,30.09,SE,124,0.0,5.0,78,-99.99,,,-99.99,,2013-03-04 01:11:00,
2013-03-03 19:21:00,25.0,19.0,30.09,SE,124,0.0,5.0,78,-99.99,,,-99.99,,2013-03-04 01:21:00,
2013-03-03 19:32:00,25.0,19.0,30.09,SE,124,0.0,5.0,78,-99.99,,,-99.99,,2013-03-04 01:32:00,
2013-03-03 19:42:00,25.0,19.0,30.09,SE,124,0.0,5.0,78,-99.99,,,-99.99,,2013-03-04 01:42:00,
2013-03-03 19:51:00,25.0,19.0,30.08,SSE,162,0.0,6.0,78,-99.99,,,-99.99,,2013-03-04 01:51:00,
2013-03-03 20:01:00,25.0,19.0,30.07,SSE,151,0.0,7.0,77,-99.99,,,-99.99,,2013-03-04 02:01:00,
2013-03-03 20:11:00,25.0,19.0,30.07,SSE,151,0.0,7.0,77,-99.99,,,-99.99,,2013-03-04 02:11:00,
2013-03-03 20:22:00,25.0,19.0,30.07,SSE,151,0.0,7.0,77,-99.99,,,-99.99,,2013-03-04 02:22:00,
2013-03-03 20:32:00,25.0,19.0,30.08,South,172,0.0,7.0,76,-99.99,,,-99.99,,2013-03-04 02:32:00,
2013-03-03 20:42:00,25.0,19.0,30.08,South,172,0.0,7.0,76,-99.99,,,-99.99,,2013-03-04 02:42:00,
2013-03-03 20:52:00,25.0,19.0,30.08,SSE,160,0.0,6.0,77,-99.99,,,-99.99,,2013-03-04 02:52:00,
2013-03-03 21:01:00,25.0,19.0,30.08,ESE,112,0.0,6.0,78,-99.99,,,-99.99,,2013-03-04 03:01:00,
2013-03-03 21:11:00,25.0,19.0,30.08,ESE,112,0.0,6.0,78,-99.99,,,-99.99,,2013-03-04 03:11:00,
2013-03-03 21:21:00,25.0,19.0,30.08,ESE,112,0.0,6.0,78,-99.99,,,-99.99,,2013-03-04 03:21:00,
2013-03-03 21:32:00,25.0,19.0,30.09,South,176,0.0,6.0,77,-99.99,,,-99.99,,2013-03-04 03:32:00,
2013-03-03 21:42:00,25.0,19.0,30.09,SSE,155,0.0,6.0,77,-99.99,,,-99.99,,2013-03-04 03:42:00,
2013-03-03 21:50:00,25.0,19.0,30.08,SE,129,0.0,9.0,78,-99.99,,,-99.99,,2013-03-04 03:50:00,
2013-03-03 21:52:00,25.0,19.0,30.09,SSE,155,0.0,6.0,77,-99.99,,,-99.99,,2013-03-04 03:52:00,
2013-03-03 22:01:00,25.0,19.0,30.08,SSE,160,0.0,9.0,78,-99.99,,,-99.99,,2013-03-04 04:01:00,
2013-03-03 22:11:00,25.0,19.0,30.08,SSE,160,0.0,9.0,78,-99.99,,,-99.99,,2013-03-04 04:11:00,
2013-03-03 22:22:00,25.0,19.0,30.08,SE,129,0.0,9.0,78,-99.99,,,-99.99,,2013-03-04 04:22:00,
2013-03-03 22:32:00,25.0,19.0,30.08,SE,129,0.0,9.0,78,-99.99,,,-99.99,,2013-03-04 04:32:00,
2013-03-03 22:42:00,25.0,19.0,30.08,SE,129,0.0,9.0,78,-99.99,,,-99.99,,2013-03-04 04:42:00,
2013-03-03 23:32:00,24.0,18.0,30.07,SE,142,0.0,7.0,78,-99.99,,,-99.99,,2013-03-04 05:32:00,
2013-03-03 23:43:00,24.0,18.0,30.07,SE,142,0.0,7.0,78,-99.99,,,-99.99,,2013-03-04 05:43:00,
2013-03-03 23:52:00,24.0,18.0,30.08,SSE,163,0.0,9.0,78,-99.99,,,-99.99,,2013-03-04 05:52:00,